Time;durP1;ratioP1;P1;durP2;ratioP2;P2;SDS_P1;SDS_P2;PMS_P1;PMS_P2;Temp;Humidity;BMP_temperature;BMP_pressure;BME280_temperature;BME280_humidity;BME280_pressure;Samples;Min_cycle;Max_cycle;Signal;HPM_P1;HPM_P2
2022/06/13 00:02:22;;;;;;;12.13;8.00;;;;;;;16.53;97.93;99855.84;1747721;82;21167;-71
2022/06/13 00:04:49;;;;;;;9.78;8.35;;;;;;;16.49;98.35;99850.34;1747987;82;21033;-72
2022/06/13 00:07:17;;;;;;;10.15;8.40;;;;;;;16.46;98.95;99855.39;1747758;82;21048;-70
2022/06/13 00:09:43;;;;;;;9.98;8.40;;;;;;;16.44;99.18;99849.32;1747772;82;21124;-71
2022/06/13 00:12:11;;;;;;;9.85;8.33;;;;;;;16.44;99.06;99853.31;1747831;82;21080;-72
2022/06/13 00:14:38;;;;;;;11.80;8.45;;;;;;;16.42;98.84;99855.21;1747909;82;21102;-71
2022/06/13 00:17:06;;;;;;;11.08;8.60;;;;;;;16.42;98.46;99851.70;1747671;82;21057;-71
2022/06/13 00:19:33;;;;;;;9.25;8.08;;;;;;;16.40;98.58;99851.80;1747704;82;21067;-71
2022/06/13 00:21:59;;;;;;;12.25;8.40;;;;;;;16.37;98.81;99848.02;1748145;82;21061;-72
2022/06/13 00:24:27;;;;;;;11.10;8.88;;;;;;;16.33;99.07;99849.17;1748075;82;21049;-70
2022/06/13 00:26:53;;;;;;;8.70;7.80;;;;;;;16.35;99.04;99851.25;1748205;81;21388;-73
2022/06/13 00:29:20;;;;;;;9.78;8.33;;;;;;;16.32;98.90;99844.82;1747920;82;21016;-71
2022/06/13 00:31:47;;;;;;;9.58;8.43;;;;;;;16.30;99.04;99849.37;1747800;82;21541;-71
2022/06/13 00:34:14;;;;;;;9.93;8.28;;;;;;;16.29;99.11;99843.22;1747803;82;21040;-71
2022/06/13 00:36:40;;;;;;;11.30;8.80;;;;;;;16.29;99.23;99842.38;1747804;82;21040;-70
2022/06/13 00:39:07;;;;;;;9.45;8.45;;;;;;;16.26;99.55;99835.42;1747739;82;21237;-71
2022/06/13 00:41:36;;;;;;;9.10;7.95;;;;;;;16.28;99.12;99841.98;1750973;81;21009;-71
2022/06/13 00:44:24;;;;;;;9.40;7.97;;;;;;;16.27;99.29;99842.95;1753372;81;21076;-70
2022/06/13 00:46:52;;;;;;;9.78;7.97;;;;;;;16.30;99.52;99848.05;1753257;81;21064;-71
2022/06/13 00:49:26;;;;;;;10.65;8.10;;;;;;;16.29;99.48;99845.03;1753366;81;21091;-70
2022/06/13 00:52:16;;;;;;;8.63;7.22;;;;;;;16.31;99.79;99845.75;1753276;81;21848;-71
2022/06/13 00:54:44;;;;;;;9.65;7.87;;;;;;;16.33;99.66;99839.87;1753459;81;21036;-70
2022/06/13 00:57:14;;;;;;;8.68;7.75;;;;;;;16.34;99.58;99844.25;1753616;81;21005;-71
2022/06/13 00:59:42;;;;;;;10.05;7.50;;;;;;;16.35;99.80;99845.94;1753282;81;21047;-72
2022/06/13 01:02:10;;;;;;;8.13;7.20;;;;;;;16.36;99.78;99836.55;1753386;81;21032;-72
2022/06/13 01:04:37;;;;;;;10.60;7.00;;;;;;;16.38;99.45;99838.23;1753424;81;21151;-71
2022/06/13 01:07:04;;;;;;;10.08;7.62;;;;;;;16.36;99.22;99834.37;1726045;81;21045;-71
2022/06/13 01:12:15;;;;;;;8.58;6.67;;;;;;;16.38;99.48;99836.46;1727884;82;21614;-71
2022/06/13 01:15:18;;;;;;;8.53;7.42;;;;;;;16.39;100.00;99840.80;1750173;82;21019;-72
2022/06/13 01:18:33;;;;;;;10.30;7.85;;;;;;;16.40;100.00;99841.17;1750679;82;21160;-72
2022/06/13 01:21:22;;;;;;;12.53;7.12;;;;;;;16.40;100.00;99837.18;1720388;83;21097;-71
2022/06/13 01:23:58;;;;;;;10.93;7.15;;;;;;;16.39;100.00;99839.48;1720674;83;21057;-70
2022/06/13 01:26:57;;;;;;;10.20;7.55;;;;;;;16.36;100.00;99837.88;1720601;82;21073;-71
2022/06/13 01:29:45;;;;;;;13.88;7.12;;;;;;;16.35;100.00;99845.45;1685512;85;21022;-70
2022/06/13 01:32:37;;;;;;;8.43;6.95;;;;;;;16.33;100.00;99842.53;1720522;83;21147;-71
2022/06/13 01:35:27;;;;;;;11.25;6.97;;;;;;;16.31;100.00;99848.41;1720365;83;21065;-71
2022/06/13 01:38:09;;;;;;;11.28;7.35;;;;;;;16.27;100.00;99848.27;1685603;85;21053;-72
2022/06/13 01:40:59;;;;;;;11.35;7.10;;;;;;;16.24;100.00;99848.44;1720679;83;21576;-72
2022/06/13 01:43:37;;;;;;;8.98;7.15;;;;;;;16.24;100.00;99848.44;1720575;83;21094;-72
2022/06/13 01:46:21;;;;;;;10.03;7.20;;;;;;;16.21;100.00;99858.80;1720504;83;21084;-72
2022/06/13 01:49:37;;;;;;;8.95;7.45;;;;;;;16.19;100.00;99850.55;1685641;84;21134;-71
2022/06/13 01:52:52;;;;;;;10.70;7.95;;;;;;;16.18;100.00;99852.84;1720140;83;21053;-72
2022/06/13 01:55:33;;;;;;;9.70;7.80;;;;;;;16.14;100.00;99855.67;1685675;85;21194;-71
2022/06/13 01:58:08;;;;;;;9.00;7.85;;;;;;;16.10;100.00;99850.21;1719212;83;21556;-71
2022/06/13 02:00:36;;;;;;;9.85;8.13;;;;;;;16.08;100.00;99850.78;1667302;85;21810;-71
2022/06/13 02:03:14;;;;;;;10.98;8.05;;;;;;;16.07;100.00;99854.38;1720473;83;21060;-71
2022/06/13 02:05:47;;;;;;;8.73;7.83;;;;;;;16.06;100.00;99844.71;1720520;83;21037;-70
2022/06/13 02:08:20;;;;;;;10.48;8.05;;;;;;;16.08;100.00;99848.13;1715886;83;21377;-71
2022/06/13 02:11:12;;;;;;;8.85;7.75;;;;;;;16.08;100.00;99850.78;1685736;85;21030;-71
2022/06/13 02:14:05;;;;;;;9.60;7.75;;;;;;;16.08;100.00;99848.13;1720450;83;21049;-71
2022/06/13 02:16:49;;;;;;;10.70;7.90;;;;;;;16.07;100.00;99846.41;1720969;83;22262;-71
2022/06/13 02:19:36;;;;;;;9.18;7.58;;;;;;;16.09;100.00;99848.97;1720509;83;21010;-71
2022/06/13 02:22:23;;;;;;;8.58;7.75;;;;;;;16.10;100.00;99850.21;1720504;83;21104;-71
2022/06/13 02:25:10;;;;;;;10.03;8.40;;;;;;;16.11;100.00;99850.58;1720280;83;21163;-71
2022/06/13 02:27:38;;;;;;;13.53;8.53;;;;;;;16.15;100.00;99846.77;1720628;83;22171;-71
2022/06/13 02:30:09;;;;;;;13.60;8.05;;;;;;;16.19;100.00;99849.22;1720524;83;21073;-70
2022/06/13 02:32:53;;;;;;;8.28;7.47;;;;;;;16.22;100.00;99849.02;1721210;83;21557;-71
2022/06/13 02:35:51;;;;;;;9.48;8.53;;;;;;;16.25;100.00;99844.36;1720163;83;21585;-70
2022/06/13 02:38:35;;;;;;;13.30;7.97;;;;;;;16.30;100.00;99846.72;1720633;83;21029;-70
2022/06/13 02:41:08;;;;;;;9.68;8.25;;;;;;;16.35;100.00;99845.94;1719834;83;21560;-71
2022/06/13 02:44:02;;;;;;;8.53;7.67;;;;;;;16.40;100.00;99845.16;1713060;83;21050;-70
2022/06/13 02:46:43;;;;;;;8.65;7.75;;;;;;;16.45;100.00;99845.73;1713124;83;21048;-70
2022/06/13 02:49:42;;;;;;;7.97;7.17;;;;;;;16.54;100.00;99848.23;1712780;83;21081;-71
2022/06/13 02:52:24;;;;;;;8.30;7.50;;;;;;;16.63;100.00;99848.10;1712544;83;21060;-73
2022/06/13 02:54:54;;;;;;;8.55;7.75;;;;;;;16.74;100.00;99842.92;1713154;83;21108;-71
2022/06/13 02:57:37;;;;;;;;;;;;;;;16.84;100.00;99845.39;1715474;83;21053;-70
2022/06/13 03:00:21;;;;;;;11.53;7.80;;;;;;;16.95;100.00;99846.81;1713019;83;20216;-71
2022/06/13 03:03:17;;;;;;;7.67;6.92;;;;;;;17.07;100.00;99846.94;1713394;83;21136;-71
2022/06/13 03:06:09;;;;;;;7.30;6.60;;;;;;;17.19;100.00;99839.45;1712969;83;21061;-70
2022/06/13 03:09:05;;;;;;;11.05;7.70;;;;;;;17.36;100.00;99847.11;1712924;83;21162;-71
2022/06/13 03:11:55;;;;;;;9.80;7.25;;;;;;;17.53;100.00;99851.72;1718354;82;21008;-70
2022/06/13 03:14:38;;;;;;;;;;;;;;;17.68;100.00;99853.31;1749826;82;21064;-69
2022/06/13 03:17:38;;;;;;;12.37;7.28;;;;;;;17.84;100.00;99860.25;1747950;82;20575;-70
2022/06/13 03:20:42;;;;;;;9.18;6.47;;;;;;;18.00;100.00;99858.19;1747913;82;21123;-70
2022/06/13 03:23:14;;;;;;;7.35;6.65;;;;;;;18.19;100.00;99861.69;1741610;82;21135;-70
2022/06/13 03:26:00;;;;;;;7.45;6.70;;;;;;;18.39;98.85;99862.42;1704007;83;21073;-71
2022/06/13 03:28:37;;;;;;;6.85;6.17;;;;;;;18.56;97.43;99865.16;1709030;83;21050;-70
2022/06/13 03:31:08;;;;;;;6.90;6.20;;;;;;;18.75;95.45;99862.44;1712975;83;21055;-69
2022/06/13 03:33:40;;;;;;;8.40;7.42;;;;;;;18.92;94.53;99858.06;1712032;83;21104;-71
2022/06/13 03:36:32;;;;;;;6.83;6.12;;;;;;;19.11;93.14;99860.66;1713047;83;21074;-70
2022/06/13 03:39:12;;;;;;;7.47;6.53;;;;;;;19.27;90.84;99866.51;1713370;83;21048;-70
2022/06/13 03:41:57;;;;;;;7.35;6.37;;;;;;;19.44;89.79;99856.72;1713333;83;21170;-71
2022/06/13 03:44:51;;;;;;;6.78;6.08;;;;;;;19.62;88.77;99861.56;1711184;83;21652;-71
2022/06/13 03:47:51;;;;;;;6.90;5.85;;;;;;;19.81;88.10;99859.17;1713016;83;21036;-71
2022/06/13 03:50:23;;;;;;;7.95;6.25;;;;;;;20.03;86.41;99863.63;1713126;83;21526;-71
2022/06/13 03:52:55;;;;;;;7.65;6.35;;;;;;;20.23;84.58;99857.17;1678580;85;21102;-71
2022/06/13 03:55:29;;;;;;;6.40;5.70;;;;;;;20.42;83.11;99864.52;1712023;83;21136;-70
2022/06/13 03:58:07;;;;;;;7.35;6.10;;;;;;;20.59;82.51;99858.67;1678394;85;21066;-71
2022/06/13 04:00:42;;;;;;;6.25;5.65;;;;;;;20.80;81.75;99863.18;1713059;83;21121;-71
2022/06/13 04:03:08;;;;;;;8.15;5.80;;;;;;;21.03;80.42;99862.11;1713078;83;21545;-71
2022/06/13 04:05:41;;;;;;;9.93;5.67;;;;;;;21.23;78.67;99867.58;1712873;83;21057;-71
2022/06/13 04:08:08;;;;;;;9.50;5.78;;;;;;;21.44;76.82;99867.12;1678376;85;21057;-72
2022/06/13 04:11:02;;;;;;;6.50;5.35;;;;;;;21.65;75.71;99871.09;1712733;83;21005;-72
2022/06/13 04:13:40;;;;;;;5.92;5.00;;;;;;;21.84;74.97;99870.82;1746810;82;21039;-71
2022/06/13 04:16:15;;;;;;;9.90;4.95;;;;;;;22.11;73.37;99874.20;1748190;82;21164;-72
2022/06/13 04:19:04;;;;;;;7.37;5.03;;;;;;;22.35;71.37;99877.90;1747783;82;21580;-72
2022/06/13 04:21:43;;;;;;;9.18;5.58;;;;;;;22.54;71.58;99877.07;1747582;82;21037;-71
2022/06/13 04:24:24;;;;;;;5.85;4.97;;;;;;;22.80;69.19;99884.09;1747632;82;21336;-71
2022/06/13 04:26:57;;;;;;;6.70;5.40;;;;;;;22.97;68.62;99885.20;1743414;81;21073;-71
2022/06/13 04:29:40;;;;;;;6.97;5.22;;;;;;;23.17;66.94;99881.55;1733831;82;21113;-72
2022/06/13 04:32:14;;;;;;;6.97;5.50;;;;;;;23.38;66.16;99883.20;1742373;82;21117;-71
2022/06/13 04:34:51;;;;;;;6.95;5.00;;;;;;;23.57;65.42;99881.79;1742441;82;21101;-70
2022/06/13 04:37:20;;;;;;;6.22;4.87;;;;;;;23.68;64.81;99870.52;1706976;83;21089;-72
2022/06/13 04:39:49;;;;;;;6.22;4.80;;;;;;;23.90;63.97;99873.34;1742371;82;21065;-70
2022/06/13 04:42:15;;;;;;;16.93;5.65;;;;;;;24.12;63.60;99873.45;1721587;82;21106;-71
2022/06/13 04:44:43;;;;;;;5.95;4.30;;;;;;;24.38;62.34;99875.75;1747893;82;21033;-71
2022/06/13 04:47:13;;;;;;;5.12;4.60;;;;;;;24.63;61.34;99876.04;1747699;82;21041;-72
2022/06/13 04:49:56;;;;;;;5.22;4.22;;;;;;;24.80;59.36;99879.25;1711830;83;21136;-71
2022/06/13 04:52:29;;;;;;;8.43;4.47;;;;;;;24.93;59.30;99875.30;1747417;82;21484;-73
2022/06/13 04:55:01;;;;;;;6.55;4.58;;;;;;;25.04;58.45;99872.36;1711777;83;21628;-72
2022/06/13 04:57:29;;;;;;;6.05;4.45;;;;;;;25.20;58.21;99872.52;1747531;82;21049;-72
2022/06/13 04:59:56;;;;;;;10.25;5.45;;;;;;;25.41;57.59;99871.31;1712295;83;21061;-72
2022/06/13 05:02:27;;;;;;;4.75;3.98;;;;;;;25.57;57.11;99878.14;1747883;82;21025;-72
2022/06/13 05:04:53;;;;;;;6.28;4.50;;;;;;;25.79;56.47;99871.84;1747167;82;21112;-71
2022/06/13 05:07:23;;;;;;;7.15;4.03;;;;;;;26.05;55.79;99874.02;1747883;82;21110;-73
2022/06/13 05:10:00;;;;;;;8.00;4.65;;;;;;;26.31;54.63;99872.58;1748215;82;21193;-71
2022/06/13 05:12:41;;;;;;;8.00;4.12;;;;;;;26.61;53.32;99873.52;1750957;81;21040;-72
2022/06/13 05:15:20;;;;;;;7.72;3.77;;;;;;;26.80;53.57;99873.19;1753373;81;21012;-71
2022/06/13 05:18:16;;;;;;;4.93;3.77;;;;;;;27.05;51.44;99881.30;1753526;81;21623;-71
2022/06/13 05:21:11;;;;;;;4.22;3.62;;;;;;;27.23;50.75;99883.34;1753320;81;21539;-72
2022/06/13 05:24:06;;;;;;;6.00;3.50;;;;;;;27.53;49.73;99878.23;1752908;81;21064;-72
2022/06/13 05:26:34;;;;;;;8.08;3.77;;;;;;;27.69;48.57;99890.35;1753181;80;21049;-72
2022/06/13 05:29:01;;;;;;;4.50;3.65;;;;;;;27.67;47.66;99885.63;1753377;81;21047;-73
2022/06/13 05:31:28;;;;;;;5.17;3.98;;;;;;;27.61;48.10;99893.94;1753481;81;21013;-73
2022/06/13 05:33:55;;;;;;;5.70;3.65;;;;;;;27.86;47.17;99895.74;1753464;81;21480;-73
2022/06/13 05:36:25;;;;;;;5.78;3.77;;;;;;;27.90;46.24;99898.44;1753342;81;21550;-71
2022/06/13 05:39:00;;;;;;;5.35;3.70;;;;;;;27.79;46.47;99892.37;1753217;81;21548;-73
2022/06/13 05:41:26;;;;;;;4.00;3.60;;;;;;;27.71;46.22;99896.44;1753590;81;21028;-72
2022/06/13 05:43:53;;;;;;;4.40;3.55;;;;;;;27.76;46.08;99899.46;1753325;81;21123;-71
2022/06/13 05:46:31;;;;;;;7.87;3.67;;;;;;;27.96;46.28;99896.40;1753339;81;21157;-72
2022/06/13 05:48:59;;;;;;;7.15;3.70;;;;;;;28.19;45.46;99893.24;1753161;81;21024;-72
2022/06/13 05:51:25;;;;;;;4.10;3.47;;;;;;;28.43;44.75;99888.70;1753550;81;21080;-71
2022/06/13 05:53:57;;;;;;;5.42;3.80;;;;;;;28.59;44.43;99888.63;1753217;81;21080;-72
2022/06/13 05:56:24;;;;;;;4.37;3.30;;;;;;;28.64;44.76;99882.67;1753464;81;21189;-72
2022/06/13 05:58:52;;;;;;;5.55;3.92;;;;;;;28.88;43.71;99891.67;1753328;81;22025;-74
2022/06/13 06:01:18;;;;;;;7.17;3.40;;;;;;;29.04;43.58;99891.53;1753541;81;21123;-72
2022/06/13 06:03:46;;;;;;;5.50;3.92;;;;;;;29.24;42.80;99887.80;1753590;81;21001;-72
2022/06/13 06:06:20;;;;;;;4.58;3.60;;;;;;;29.37;42.57;99886.67;1753450;81;21600;-74
2022/06/13 06:08:47;;;;;;;3.90;3.50;;;;;;;29.61;42.32;99871.16;1753537;81;21048;-72
2022/06/13 06:11:14;;;;;;;4.10;3.60;;;;;;;29.61;42.32;99871.16;1752252;81;21136;-73
2022/06/13 06:13:42;;;;;;;4.30;3.90;;;;;;;29.81;41.94;99876.90;1720691;83;21006;-74
2022/06/13 06:16:12;;;;;;;8.78;4.65;;;;;;;29.99;40.98;99875.16;1720762;83;21053;-73
2022/06/13 06:18:41;;;;;;;4.62;4.00;;;;;;;29.94;40.99;99873.53;1720875;83;21060;-72
2022/06/13 06:21:07;;;;;;;4.15;3.40;;;;;;;30.01;40.71;99869.03;1720657;83;21171;-73
2022/06/13 06:23:35;;;;;;;9.28;3.58;;;;;;;30.14;40.14;99871.91;1720871;83;21806;-72
2022/06/13 06:26:02;;;;;;;7.80;3.90;;;;;;;30.38;39.42;99869.39;1720504;83;21096;-70
2022/06/13 06:28:29;;;;;;;4.20;3.90;;;;;;;30.57;38.51;99873.88;1720775;83;21058;-71
2022/06/13 06:30:58;;;;;;;5.17;3.72;;;;;;;30.68;37.64;99870.64;1720662;83;21125;-73
2022/06/13 06:33:26;;;;;;;3.50;3.05;;;;;;;30.68;38.20;99867.92;1720923;83;21025;-74
2022/06/13 06:35:53;;;;;;;7.47;3.60;;;;;;;30.64;38.34;99862.02;1720625;83;21226;-73
2022/06/13 06:38:22;;;;;;;6.75;3.70;;;;;;;30.83;38.15;99861.91;1721070;83;21092;-74
2022/06/13 06:40:49;;;;;;;6.03;3.75;;;;;;;30.95;38.24;99860.90;1720753;82;21610;-74
2022/06/13 06:43:16;;;;;;;4.92;3.70;;;;;;;31.23;37.11;99861.43;1729103;81;21111;-73
2022/06/13 06:45:43;;;;;;;5.53;3.40;;;;;;;31.39;36.09;99862.48;1747092;82;21037;-72
2022/06/13 06:48:18;;;;;;;5.55;3.30;;;;;;;31.41;35.47;99860.44;1747838;82;21691;-74
2022/06/13 06:50:46;;;;;;;5.55;3.55;;;;;;;31.36;36.20;99855.56;1747801;81;21133;-71
2022/06/13 06:53:13;;;;;;;5.70;3.47;;;;;;;31.40;36.57;99853.27;1748170;82;21052;-72
2022/06/13 07:01:13;;;;;;;4.50;2.98;;;;;;;31.33;35.08;99852.39;1747908;82;21990;-73
2022/06/13 07:03:40;;;;;;;5.80;2.60;;;;;;;31.23;35.61;99857.35;1748220;82;21060;-73
2022/06/13 07:06:08;;;;;;;2.90;2.60;;;;;;;31.14;35.35;99852.05;1747888;82;22088;-73
2022/06/13 07:08:36;;;;;;;3.25;2.37;;;;;;;31.15;35.93;99855.59;1748068;82;21116;-72
2022/06/13 07:13:51;;;;;;;6.35;2.95;;;;;;;31.74;35.30;99847.02;1717946;83;21156;-74
2022/06/13 07:16:18;;;;;;;3.17;2.65;;;;;;;31.90;33.43;99851.28;1717863;83;21097;-72
2022/06/13 07:18:45;;;;;;;8.33;2.98;;;;;;;31.80;34.32;99845.91;1718288;83;21068;-72
2022/06/13 07:21:14;;;;;;;6.20;2.83;;;;;;;32.01;33.84;99841.73;1717921;83;21565;-73
2022/06/13 07:23:41;;;;;;;6.45;2.60;;;;;;;32.44;33.76;99843.31;1718055;83;21633;-72
2022/06/13 07:26:07;;;;;;;2.62;2.30;;;;;;;32.62;32.93;99838.66;1717891;82;21581;-72
2022/06/13 07:28:35;;;;;;;2.95;2.15;;;;;;;32.42;32.08;99848.98;1717947;83;21057;-73
2022/06/13 07:31:01;;;;;;;2.60;2.20;;;;;;;32.39;32.19;99843.44;1718097;83;21136;-72
2022/06/13 07:33:29;;;;;;;2.15;1.90;;;;;;;32.37;31.85;99842.80;1718313;83;21041;-72
2022/06/13 07:35:56;;;;;;;3.10;1.80;;;;;;;32.38;30.69;99848.55;1718152;83;22139;-74
2022/06/13 07:38:23;;;;;;;3.58;2.00;;;;;;;32.38;30.51;99843.09;1718118;83;21659;-72
2022/06/13 07:40:53;;;;;;;6.22;1.98;;;;;;;32.35;30.81;99846.24;1718182;83;21095;-73
2022/06/13 07:43:31;;;;;;;6.78;2.45;;;;;;;32.45;31.23;99842.28;1718122;83;21293;-72
2022/06/13 07:45:59;;;;;;;3.22;2.00;;;;;;;32.56;30.58;99841.70;1720108;83;21562;-72
2022/06/13 07:48:27;;;;;;;5.10;2.45;;;;;;;32.54;31.21;99843.80;1720594;83;21092;-72
2022/06/13 07:50:54;;;;;;;3.10;1.98;;;;;;;32.67;30.92;99840.23;1685887;85;21858;-73
2022/06/13 07:53:20;;;;;;;2.67;1.98;;;;;;;32.71;31.31;99843.70;1720445;83;21061;-72
2022/06/13 07:55:47;;;;;;;3.58;1.90;;;;;;;32.75;30.52;99835.95;1720914;83;21161;-73
2022/06/13 07:58:28;;;;;;;2.65;2.00;;;;;;;32.80;30.20;99841.62;1720383;83;21124;-72
2022/06/13 08:00:54;;;;;;;3.00;2.17;;;;;;;32.93;29.29;99839.43;1720049;83;21651;-71
2022/06/13 08:03:28;;;;;;;4.28;1.95;;;;;;;32.94;29.80;99835.11;1720530;83;21158;-71
2022/06/13 08:05:55;;;;;;;4.85;2.15;;;;;;;33.05;29.41;99839.13;1720810;83;21545;-72
2022/06/13 08:08:22;;;;;;;3.40;2.27;;;;;;;33.18;29.41;99836.94;1720602;83;21100;-73
2022/06/13 08:10:50;;;;;;;4.95;1.80;;;;;;;33.06;29.21;99831.28;1720541;83;21115;-73
2022/06/13 08:13:18;;;;;;;4.85;2.00;;;;;;;32.94;29.27;99835.64;1749196;81;21009;-72
2022/06/13 08:15:45;;;;;;;4.90;2.30;;;;;;;33.00;29.31;99826.63;1753128;81;21705;-72
2022/06/13 08:18:13;;;;;;;2.45;1.90;;;;;;;33.13;29.24;99831.25;1753062;81;21116;-72
2022/06/13 08:20:43;;;;;;;7.42;2.45;;;;;;;33.22;29.56;99833.57;1753120;81;21063;-72
2022/06/13 08:23:12;;;;;;;4.70;1.95;;;;;;;33.24;28.89;99837.43;1753492;81;21554;-72
2022/06/13 08:25:40;;;;;;;3.77;1.95;;;;;;;32.80;28.71;99823.89;1753380;80;21075;-72
2022/06/13 08:28:07;;;;;;;3.08;2.00;;;;;;;32.25;29.86;99823.98;1753600;81;21763;-72
2022/06/13 08:30:45;;;;;;;5.55;2.02;;;;;;;31.59;30.60;99837.30;1753446;81;21067;-73
2022/06/13 08:33:14;;;;;;;4.03;2.10;;;;;;;31.11;31.03;99833.94;1753723;81;21092;-73
2022/06/13 08:35:43;;;;;;;5.62;2.00;;;;;;;30.96;32.10;99825.86;1753417;81;21001;-72
2022/06/13 08:38:09;;;;;;;2.20;2.00;;;;;;;30.96;32.21;99832.66;1753666;81;21021;-72
2022/06/13 08:41:13;;;;;;;5.65;2.00;;;;;;;30.94;31.82;99826.57;1753363;81;21124;-72
2022/06/13 08:44:14;;;;;;;3.15;2.30;;;;;;;31.07;32.21;99821.77;1752932;81;21060;-73
2022/06/13 08:47:07;;;;;;;2.10;1.90;;;;;;;31.62;31.16;99823.30;1753088;81;21044;-72
2022/06/13 08:49:44;;;;;;;3.77;1.70;;;;;;;32.02;30.53;99814.80;1753369;81;21056;-72
2022/06/13 08:52:31;;;;;;;4.65;2.17;;;;;;;32.44;30.18;99806.52;1753316;81;21041;-72
2022/06/13 08:55:28;;;;;;;3.47;2.10;;;;;;;32.85;29.53;99812.36;1753399;81;21245;-72
2022/06/13 08:58:09;;;;;;;3.42;2.35;;;;;;;32.98;29.30;99821.91;1732584;81;21001;-71
2022/06/13 09:00:36;;;;;;;3.52;2.08;;;;;;;32.89;29.77;99821.80;1753502;81;21576;-71
2022/06/13 09:03:11;;;;;;;8.63;2.02;;;;;;;32.52;30.34;99818.10;1753397;81;21065;-72
2022/06/13 09:05:55;;;;;;;3.50;1.90;;;;;;;32.13;30.54;99821.55;1753297;81;21096;-73
2022/06/13 09:08:50;;;;;;;5.00;2.20;;;;;;;31.67;31.09;99820.81;1753704;81;21563;-72
2022/06/13 09:11:30;;;;;;;5.80;1.90;;;;;;;31.23;31.81;99820.63;1752996;81;21016;-71
2022/06/13 09:14:19;;;;;;;3.25;2.27;;;;;;;30.98;32.52;99825.15;1750407;82;21062;-72
2022/06/13 09:16:58;;;;;;;6.58;2.20;;;;;;;30.87;32.39;99831.12;1750543;82;21500;-72
2022/06/13 09:19:54;;;;;;;2.85;1.90;;;;;;;30.63;32.56;99827.75;1749755;82;21634;-71
2022/06/13 09:22:33;;;;;;;3.15;2.10;;;;;;;30.44;32.64;99822.97;1718705;82;21275;-72
2022/06/13 09:25:33;;;;;;;2.20;2.00;;;;;;;30.27;32.51;99823.19;1750278;80;21041;-73
2022/06/13 09:28:28;;;;;;;3.92;2.10;;;;;;;29.93;33.18;99821.09;1749718;82;21259;-72
2022/06/13 09:30:59;;;;;;;5.65;2.00;;;;;;;29.65;34.00;99816.84;1750575;82;21056;-73
2022/06/13 09:33:30;;;;;;;7.22;2.15;;;;;;;29.45;34.17;99818.78;1714813;83;21064;-72
2022/06/13 09:36:06;;;;;;;4.55;2.25;;;;;;;29.30;34.81;99821.99;1750532;82;22142;-71
2022/06/13 09:38:37;;;;;;;2.47;2.27;;;;;;;29.14;35.67;99823.52;1697705;82;21061;-72
2022/06/13 09:41:28;;;;;;;5.03;2.40;;;;;;;29.02;35.82;99832.06;1750138;82;21579;-72
2022/06/13 09:44:06;;;;;;;13.05;2.40;;;;;;;28.95;35.40;99832.48;1750339;81;21056;-72
2022/06/13 09:46:56;;;;;;;3.40;2.17;;;;;;;28.86;35.65;99831.70;1750355;82;21005;-71
2022/06/13 09:49:53;;;;;;;3.27;2.20;;;;;;;28.94;35.79;99829.45;1750175;82;21165;-72
2022/06/13 09:52:50;;;;;;;4.00;2.33;;;;;;;28.69;35.51;99822.53;1750209;82;21075;-72
2022/06/13 09:58:58;;;;;;;7.17;2.25;;;;;;;29.06;35.43;99821.19;1852298;77;22540;-72
2022/06/13 10:01:49;;;;;;;5.78;2.37;;;;;;;29.49;35.29;99824.17;1796564;78;21639;-72
2022/06/13 10:04:32;;;;;;;4.37;2.17;;;;;;;30.94;32.29;99813.84;1719030;80;22188;-72
2022/06/13 10:07:16;;;;;;;2.37;2.17;;;;;;;30.94;32.29;99813.84;1820282;78;20972;-73
2022/06/13 10:10:10;;;;;;;7.92;2.65;;;;;;;31.48;30.79;99806.90;1819851;78;20965;-72
2022/06/13 10:13:19;;;;;;;5.37;2.33;;;;;;;31.97;30.82;99800.44;1819517;78;20918;-71
2022/06/13 10:16:05;;;;;;;2.30;2.10;;;;;;;32.48;28.70;99799.61;1819556;78;21565;-71
2022/06/13 10:18:46;;;;;;;4.87;2.20;;;;;;;32.40;29.07;99793.32;1817203;78;21552;-72
2022/06/13 10:21:40;;;;;;;5.65;2.90;;;;;;;32.39;28.80;99790.30;1817975;78;21054;-74
2022/06/13 10:24:33;;;;;;;2.75;2.00;;;;;;;32.21;28.37;99791.91;1813479;78;21080;-72
2022/06/13 10:27:17;;;;;;;4.67;1.92;;;;;;;32.02;28.38;99790.82;1812973;79;21069;-72
2022/06/13 10:30:16;;;;;;;2.95;2.15;;;;;;;32.02;28.63;99796.27;1813159;79;21517;-73
2022/06/13 10:33:12;;;;;;;3.77;2.07;;;;;;;32.34;28.18;99793.30;1813466;79;21529;-73
2022/06/13 10:36:03;;;;;;;4.08;2.22;;;;;;;32.73;27.79;99790.34;1813057;79;21014;-72
2022/06/13 10:38:50;;;;;;;2.80;1.72;;;;;;;32.74;27.23;99791.50;1813022;79;21029;-74
2022/06/13 10:41:17;;;;;;;3.42;1.70;;;;;;;32.58;27.40;99782.38;1812830;79;21025;-73
2022/06/13 10:43:44;;;;;;;2.98;2.17;;;;;;;32.48;27.12;99771.00;1812952;79;21601;-72
2022/06/13 10:46:13;;;;;;;2.15;1.90;;;;;;;32.40;27.71;99771.52;1813099;79;21136;-73
2022/06/13 10:48:56;;;;;;;2.05;1.65;;;;;;;32.50;27.50;99779.81;1812930;79;21475;-73
2022/06/13 10:51:23;;;;;;;3.50;1.70;;;;;;;32.62;27.30;99774.07;1813391;79;21533;-72
2022/06/13 10:54:17;;;;;;;13.00;1.90;;;;;;;32.47;27.16;99769.34;1813204;79;21525;-72
2022/06/13 10:56:54;;;;;;;2.08;1.80;;;;;;;32.43;27.12;99765.34;1810008;78;21087;-72
2022/06/13 10:59:29;;;;;;;5.08;2.55;;;;;;;32.19;27.20;99770.34;1756020;80;21207;-72
2022/06/13 11:02:00;;;;;;;6.75;2.95;;;;;;;31.93;27.98;99771.93;1784393;80;21045;-73
2022/06/13 11:04:35;;;;;;;13.43;2.90;;;;;;;31.89;28.14;99769.29;1784202;80;21100;-72
2022/06/13 11:07:16;;;;;;;8.03;2.75;;;;;;;31.89;28.12;99773.37;1783862;80;21013;-71
2022/06/13 11:09:51;;;;;;;9.30;3.60;;;;;;;31.83;28.06;99768.73;1783476;80;21470;-73
2022/06/13 11:12:30;;;;;;;14.13;5.03;;;;;;;31.65;27.90;99762.48;1780193;80;21057;-72
2022/06/13 11:24:39;;;;;;;5.80;1.90;;;;;;;30.97;28.81;99765.02;1777148;80;21081;-71
2022/06/13 11:30:38;;;;;;;3.17;2.20;;;;;;;30.59;29.91;99768.02;1777631;80;21543;-71
2022/06/13 11:33:29;;;;;;;3.12;1.90;;;;;;;30.65;29.62;99765.05;1777268;80;21027;-72
2022/06/13 11:36:05;;;;;;;;;;;;;;;30.93;28.69;99752.33;1780014;80;21029;-72
2022/06/13 11:38:37;;;;;;;5.78;1.82;;;;;;;31.17;28.65;99747.45;1777246;80;20179;-72
2022/06/13 11:41:16;;;;;;;2.22;1.80;;;;;;;31.39;28.04;99740.58;1776966;80;21626;-72
2022/06/13 11:43:52;;;;;;;2.58;1.85;;;;;;;31.35;27.33;99744.20;1777300;80;21108;-73
2022/06/13 11:46:37;;;;;;;3.22;2.02;;;;;;;31.45;28.19;99743.86;1777082;80;21633;-70
2022/06/13 11:49:15;;;;;;;2.87;1.85;;;;;;;31.56;27.44;99744.65;1777135;80;21601;-72
2022/06/13 11:51:53;;;;;;;2.85;1.85;;;;;;;31.33;28.17;99738.12;1776585;80;21641;-72
2022/06/13 11:54:28;;;;;;;3.37;2.25;;;;;;;31.06;28.52;99743.44;1777318;80;21261;-71
2022/06/13 11:57:24;;;;;;;3.08;2.17;;;;;;;30.78;28.71;99746.11;1776124;80;21526;-72
2022/06/13 12:00:19;;;;;;;5.70;2.27;;;;;;;30.51;29.31;99749.16;1746319;82;21302;-71
2022/06/13 12:02:54;;;;;;;5.75;2.10;;;;;;;30.21;30.28;99749.79;1746254;82;21062;-71
2022/06/13 12:05:39;;;;;;;2.98;2.00;;;;;;;30.00;30.13;99742.44;1746367;82;21566;-72
2022/06/13 12:08:19;;;;;;;2.10;1.90;;;;;;;29.82;30.28;99741.02;1746649;82;21741;-73
2022/06/13 12:11:05;;;;;;;4.27;1.90;;;;;;;29.67;30.81;99735.61;1746166;82;21139;-73
2022/06/13 12:13:37;;;;;;;4.30;2.22;;;;;;;29.58;31.05;99731.81;1782625;80;21037;-72
2022/06/13 12:16:32;;;;;;;3.92;2.50;;;;;;;29.51;31.36;99737.15;1745930;82;21039;-73
2022/06/13 12:19:36;;;;;;;4.20;2.20;;;;;;;29.39;31.82;99731.37;1746516;82;21004;-71
2022/06/13 12:22:20;;;;;;;2.70;2.33;;;;;;;29.41;31.81;99726.60;1666246;85;22298;-71
2022/06/13 12:25:17;;;;;;;2.75;2.40;;;;;;;29.35;31.90;99715.14;1688601;84;21091;-72
2022/06/13 12:28:12;;;;;;;4.72;2.30;;;;;;;29.35;31.90;99715.14;1727596;82;21101;-72
2022/06/13 12:31:07;;;;;;;3.60;2.40;;;;;;;29.36;32.42;99716.84;1746421;82;21069;-72
2022/06/13 12:34:20;;;;;;;4.80;2.05;;;;;;;29.25;32.70;99705.95;1746538;82;21029;-72
2022/06/13 12:37:02;;;;;;;5.92;2.20;;;;;;;29.26;32.81;99702.71;1746222;82;21300;-73
2022/06/13 12:40:06;;;;;;;2.10;1.87;;;;;;;29.35;31.53;99697.52;1746146;82;21104;-71
2022/06/13 12:42:59;;;;;;;5.00;2.37;;;;;;;29.35;31.53;99697.52;1746177;82;21582;-72
2022/06/13 12:45:34;;;;;;;6.55;2.55;;;;;;;29.29;31.75;99690.16;1746343;82;21620;-73
2022/06/13 12:48:10;;;;;;;4.17;2.58;;;;;;;29.15;31.83;99691.85;1746091;82;21057;-72
2022/06/13 12:51:02;;;;;;;9.88;3.00;;;;;;;29.05;31.81;99685.30;1746178;82;21090;-73